sensor_id;sensor_type;location;lat;lon;timestamp;pressure;altitude;pressure_sealevel;temperature;humidity
60019;BME280;45870;42.528;26.740;2023-08-21T00:01:30;99620.41;;;26.16;39.07
60019;BME280;45870;42.528;26.740;2023-08-21T00:03:56;99626.38;;;26.60;38.77
60019;BME280;45870;42.528;26.740;2023-08-21T00:06:22;99594.50;;;26.42;38.59
60019;BME280;45870;42.528;26.740;2023-08-21T00:08:47;99622.41;;;26.49;38.44
60019;BME280;45870;42.528;26.740;2023-08-21T00:11:13;99622.63;;;26.44;38.50
60019;BME280;45870;42.528;26.740;2023-08-21T00:13:38;99622.13;;;26.62;38.37
60019;BME280;45870;42.528;26.740;2023-08-21T00:16:04;99621.22;;;26.70;37.86
60019;BME280;45870;42.528;26.740;2023-08-21T00:18:29;99624.06;;;26.62;38.46
60019;BME280;45870;42.528;26.740;2023-08-21T00:20:55;99622.13;;;26.62;38.24
60019;BME280;45870;42.528;26.740;2023-08-21T00:23:21;99631.53;;;26.49;38.46
60019;BME280;45870;42.528;26.740;2023-08-21T00:25:47;99563.75;;;26.22;38.21
60019;BME280;45870;42.528;26.740;2023-08-21T00:28:13;99633.38;;;26.57;38.70
60019;BME280;45870;42.528;26.740;2023-08-21T00:30:39;99638.81;;;26.54;38.71
60019;BME280;45870;42.528;26.740;2023-08-21T00:33:05;99633.25;;;26.54;38.42
60019;BME280;45870;42.528;26.740;2023-08-21T00:35:31;99617.38;;;26.63;37.68
60019;BME280;45870;42.528;26.740;2023-08-21T00:37:56;99582.69;;;26.32;37.65
60019;BME280;45870;42.528;26.740;2023-08-21T00:40:22;99627.41;;;26.67;38.00
60019;BME280;45870;42.528;26.740;2023-08-21T00:42:47;99630.72;;;26.49;37.65
60019;BME280;45870;42.528;26.740;2023-08-21T00:45:13;99623.00;;;26.54;38.01
60019;BME280;45870;42.528;26.740;2023-08-21T00:47:39;99627.63;;;26.09;38.32
60019;BME280;45870;42.528;26.740;2023-08-21T00:50:06;99631.91;;;26.06;38.23
60019;BME280;45870;42.528;26.740;2023-08-21T00:52:34;99623.47;;;25.82;39.19
60019;BME280;45870;42.528;26.740;2023-08-21T00:55:00;99620.81;;;26.06;38.99
60019;BME280;45870;42.528;26.740;2023-08-21T00:57:26;99623.84;;;26.13;39.05
60019;BME280;45870;42.528;26.740;2023-08-21T00:59:52;99630.53;;;26.12;38.71
60019;BME280;45870;42.528;26.740;2023-08-21T01:02:18;99625.06;;;26.04;38.53
60019;BME280;45870;42.528;26.740;2023-08-21T01:04:44;99625.97;;;25.96;38.72
60019;BME280;45870;42.528;26.740;2023-08-21T01:07:10;99622.66;;;25.81;38.45
60019;BME280;45870;42.528;26.740;2023-08-21T01:09:46;99625.69;;;25.89;38.65
60019;BME280;45870;42.528;26.740;2023-08-21T01:14:58;99624.88;;;25.88;37.84
60019;BME280;45870;42.528;26.740;2023-08-21T01:17:25;99276.78;;;23.67;38.04
60019;BME280;45870;42.528;26.740;2023-08-21T01:19:52;99624.00;;;25.96;38.14
60019;BME280;45870;42.528;26.740;2023-08-21T01:22:19;99619.06;;;25.60;38.57
60019;BME280;45870;42.528;26.740;2023-08-21T01:24:44;99597.56;;;25.37;38.93
60019;BME280;45870;42.528;26.740;2023-08-21T01:27:12;99629.00;;;25.82;38.47
60019;BME280;45870;42.528;26.740;2023-08-21T01:29:39;99621.16;;;26.05;37.69
60019;BME280;45870;42.528;26.740;2023-08-21T01:34:59;99618.75;;;25.82;38.08
60019;BME280;45870;42.528;26.740;2023-08-21T01:37:26;99619.47;;;25.42;39.16
60019;BME280;45870;42.528;26.740;2023-08-21T01:39:52;99623.66;;;25.77;38.70
60019;BME280;45870;42.528;26.740;2023-08-21T01:42:17;99618.94;;;25.48;39.26
60019;BME280;45870;42.528;26.740;2023-08-21T01:44:43;99571.59;;;25.29;38.98
60019;BME280;45870;42.528;26.740;2023-08-21T01:47:11;99622.03;;;25.17;40.17
60019;BME280;45870;42.528;26.740;2023-08-21T01:49:37;99626.06;;;25.20;39.65
60019;BME280;45870;42.528;26.740;2023-08-21T01:52:03;99633.09;;;25.76;38.57
60019;BME280;45870;42.528;26.740;2023-08-21T01:54:28;99622.03;;;25.76;38.25
60019;BME280;45870;42.528;26.740;2023-08-21T01:56:54;99582.78;;;25.62;38.12
60019;BME280;45870;42.528;26.740;2023-08-21T01:59:20;99634.22;;;25.16;39.37
60019;BME280;45870;42.528;26.740;2023-08-21T02:01:45;99621.03;;;25.80;38.06
60019;BME280;45870;42.528;26.740;2023-08-21T02:04:11;99628.50;;;26.01;37.48
60019;BME280;45870;42.528;26.740;2023-08-21T02:06:37;99631.75;;;26.03;37.77
60019;BME280;45870;42.528;26.740;2023-08-21T02:09:02;99623.78;;;26.01;37.28
60019;BME280;45870;42.528;26.740;2023-08-21T02:11:28;99631.34;;;25.92;37.74
60019;BME280;45870;42.528;26.740;2023-08-21T02:13:53;99624.88;;;25.88;37.44
60019;BME280;45870;42.528;26.740;2023-08-21T02:16:19;99624.28;;;26.03;37.35
60019;BME280;45870;42.528;26.740;2023-08-21T02:18:47;99623.50;;;25.94;37.75
60019;BME280;45870;42.528;26.740;2023-08-21T02:21:13;99624.09;;;25.58;38.06
60019;BME280;45870;42.528;26.740;2023-08-21T02:23:38;99626.06;;;25.58;38.49
60019;BME280;45870;42.528;26.740;2023-08-21T02:26:04;99601.47;;;25.65;38.38
60019;BME280;45870;42.528;26.740;2023-08-21T02:28:30;99622.88;;;25.09;39.80
60019;BME280;45870;42.528;26.740;2023-08-21T02:30:55;99620.72;;;25.53;38.77
60019;BME280;45870;42.528;26.740;2023-08-21T02:33:21;99632.75;;;25.77;38.51
60019;BME280;45870;42.528;26.740;2023-08-21T02:35:46;99627.91;;;25.74;38.87
60019;BME280;45870;42.528;26.740;2023-08-21T02:38:12;99620.59;;;25.70;38.49
60019;BME280;45870;42.528;26.740;2023-08-21T02:40:37;99631.19;;;25.39;39.36
60019;BME280;45870;42.528;26.740;2023-08-21T02:43:03;99624.06;;;25.67;39.05
60019;BME280;45870;42.528;26.740;2023-08-21T02:45:30;99625.59;;;25.56;39.12
60019;BME280;45870;42.528;26.740;2023-08-21T02:47:55;99637.19;;;25.70;38.21
60019;BME280;45870;42.528;26.740;2023-08-21T02:50:21;99627.41;;;25.72;38.21
60019;BME280;45870;42.528;26.740;2023-08-21T02:52:47;99595.94;;;25.35;38.16
60019;BME280;45870;42.528;26.740;2023-08-21T02:55:12;99632.84;;;24.93;39.67
60019;BME280;45870;42.528;26.740;2023-08-21T02:57:39;99590.88;;;25.38;38.38
60019;BME280;45870;42.528;26.740;2023-08-21T03:00:05;99600.31;;;25.37;38.54
60019;BME280;45870;42.528;26.740;2023-08-21T03:02:33;99622.97;;;25.59;38.19
60019;BME280;45870;42.528;26.740;2023-08-21T03:04:58;99625.13;;;25.45;38.51
60019;BME280;45870;42.528;26.740;2023-08-21T03:07:24;99618.91;;;25.57;38.53
60019;BME280;45870;42.528;26.740;2023-08-21T03:09:50;99630.13;;;25.81;38.48
60019;BME280;45870;42.528;26.740;2023-08-21T03:12:16;99551.06;;;25.09;38.70
60019;BME280;45870;42.528;26.740;2023-08-21T03:14:41;99603.28;;;25.61;38.67
60019;BME280;45870;42.528;26.740;2023-08-21T03:17:07;99530.25;;;24.74;39.67
60019;BME280;45870;42.528;26.740;2023-08-21T03:19:33;99623.75;;;25.30;39.25
60019;BME280;45870;42.528;26.740;2023-08-21T03:21:58;99628.22;;;25.73;38.29
60019;BME280;45870;42.528;26.740;2023-08-21T03:24:24;99637.22;;;25.91;37.92
60019;BME280;45870;42.528;26.740;2023-08-21T03:26:49;99632.56;;;25.82;37.67
60019;BME280;45870;42.528;26.740;2023-08-21T03:29:15;99634.66;;;26.06;37.73
60019;BME280;45870;42.528;26.740;2023-08-21T03:31:41;99614.22;;;25.78;37.66
60019;BME280;45870;42.528;26.740;2023-08-21T03:34:07;99633.84;;;26.06;37.51
60019;BME280;45870;42.528;26.740;2023-08-21T03:36:32;99636.44;;;26.31;37.47
60019;BME280;45870;42.528;26.740;2023-08-21T03:39:01;99633.94;;;26.51;37.00
60019;BME280;45870;42.528;26.740;2023-08-21T03:41:27;99589.47;;;26.68;36.16
60019;BME280;45870;42.528;26.740;2023-08-21T03:43:53;99643.03;;;27.53;35.09
60019;BME280;45870;42.528;26.740;2023-08-21T03:46:19;99619.09;;;27.73;34.35
60019;BME280;45870;42.528;26.740;2023-08-21T03:48:45;99638.31;;;28.46;32.58
60019;BME280;45870;42.528;26.740;2023-08-21T03:51:11;99642.69;;;29.34;31.85
60019;BME280;45870;42.528;26.740;2023-08-21T03:53:36;99642.50;;;29.77;30.21
60019;BME280;45870;42.528;26.740;2023-08-21T03:56:02;99645.03;;;30.55;30.48
60019;BME280;45870;42.528;26.740;2023-08-21T03:58:28;99645.88;;;31.47;28.82
60019;BME280;45870;42.528;26.740;2023-08-21T04:00:54;99599.22;;;31.44;28.52
60019;BME280;45870;42.528;26.740;2023-08-21T04:03:20;99645.00;;;31.16;28.14
60019;BME280;45870;42.528;26.740;2023-08-21T04:05:46;99638.03;;;32.68;26.53
60019;BME280;45870;42.528;26.740;2023-08-21T04:08:12;99652.38;;;33.51;25.29
60019;BME280;45870;42.528;26.740;2023-08-21T04:10:38;99656.91;;;33.66;25.06
60019;BME280;45870;42.528;26.740;2023-08-21T04:13:05;99598.31;;;33.98;24.69
60019;BME280;45870;42.528;26.740;2023-08-21T04:15:31;99642.28;;;35.01;23.38
60019;BME280;45870;42.528;26.740;2023-08-21T04:17:57;99653.91;;;34.96;23.95
60019;BME280;45870;42.528;26.740;2023-08-21T04:20:22;99636.47;;;36.50;22.24
60019;BME280;45870;42.528;26.740;2023-08-21T04:22:49;99657.66;;;37.31;21.64
60019;BME280;45870;42.528;26.740;2023-08-21T04:25:15;99660.69;;;37.98;20.97
60019;BME280;45870;42.528;26.740;2023-08-21T04:27:42;99664.81;;;38.58;20.50
60019;BME280;45870;42.528;26.740;2023-08-21T04:30:08;99668.13;;;38.83;19.38
60019;BME280;45870;42.528;26.740;2023-08-21T04:32:34;99648.19;;;39.71;19.58
60019;BME280;45870;42.528;26.740;2023-08-21T04:35:00;99668.81;;;39.18;19.70
60019;BME280;45870;42.528;26.740;2023-08-21T04:37:26;99579.19;;;39.22;18.96
60019;BME280;45870;42.528;26.740;2023-08-21T04:39:52;99668.13;;;41.18;17.89
60019;BME280;45870;42.528;26.740;2023-08-21T04:42:18;99626.59;;;41.76;17.35
60019;BME280;45870;42.528;26.740;2023-08-21T04:44:44;99669.81;;;42.09;16.66
60019;BME280;45870;42.528;26.740;2023-08-21T04:47:24;99584.09;;;42.17;16.79
60019;BME280;45870;42.528;26.740;2023-08-21T04:49:52;99666.69;;;43.74;16.12
60019;BME280;45870;42.528;26.740;2023-08-21T04:52:18;99653.03;;;43.82;15.30
60019;BME280;45870;42.528;26.740;2023-08-21T04:54:44;99636.63;;;44.51;15.15
60019;BME280;45870;42.528;26.740;2023-08-21T04:57:10;99665.53;;;44.41;15.20
60019;BME280;45870;42.528;26.740;2023-08-21T04:59:36;99665.84;;;44.64;15.00
60019;BME280;45870;42.528;26.740;2023-08-21T05:02:02;99676.84;;;45.15;14.67
60019;BME280;45870;42.528;26.740;2023-08-21T05:04:28;99668.50;;;46.15;13.97
60019;BME280;45870;42.528;26.740;2023-08-21T05:06:53;99670.38;;;46.36;14.17
60019;BME280;45870;42.528;26.740;2023-08-21T05:09:19;99669.00;;;47.15;13.06
60019;BME280;45870;42.528;26.740;2023-08-21T05:11:44;99676.59;;;46.95;13.52
60019;BME280;45870;42.528;26.740;2023-08-21T05:14:10;99645.13;;;46.44;13.93
60019;BME280;45870;42.528;26.740;2023-08-21T05:16:36;99676.06;;;46.54;14.07
60019;BME280;45870;42.528;26.740;2023-08-21T05:19:02;99673.69;;;46.53;14.34
60019;BME280;45870;42.528;26.740;2023-08-21T05:21:29;99671.88;;;46.74;13.94
60019;BME280;45870;42.528;26.740;2023-08-21T05:23:55;99679.50;;;47.99;13.02
60019;BME280;45870;42.528;26.740;2023-08-21T05:26:20;99590.13;;;47.80;13.02
60019;BME280;45870;42.528;26.740;2023-08-21T05:28:46;99684.53;;;49.01;12.71
60019;BME280;45870;42.528;26.740;2023-08-21T05:31:12;99660.28;;;49.02;12.25
60019;BME280;45870;42.528;26.740;2023-08-21T05:33:37;99696.06;;;48.77;11.08
60019;BME280;45870;42.528;26.740;2023-08-21T05:36:04;99689.91;;;48.26;11.29
60019;BME280;45870;42.528;26.740;2023-08-21T05:38:30;99683.47;;;48.69;10.63
60019;BME280;45870;42.528;26.740;2023-08-21T05:40:56;99691.19;;;49.13;10.99
60019;BME280;45870;42.528;26.740;2023-08-21T05:43:21;99686.84;;;49.52;10.16
60019;BME280;45870;42.528;26.740;2023-08-21T05:45:47;99688.47;;;50.39;9.97
60019;BME280;45870;42.528;26.740;2023-08-21T05:48:13;99687.38;;;48.86;9.95
60019;BME280;45870;42.528;26.740;2023-08-21T05:50:39;99689.41;;;49.85;10.15
60019;BME280;45870;42.528;26.740;2023-08-21T05:53:05;99675.53;;;47.16;11.48
60019;BME280;45870;42.528;26.740;2023-08-21T05:55:30;99680.53;;;47.87;11.51
60019;BME280;45870;42.528;26.740;2023-08-21T05:57:56;99565.31;;;45.71;12.19
60019;BME280;45870;42.528;26.740;2023-08-21T06:00:21;99674.66;;;48.05;10.47
60019;BME280;45870;42.528;26.740;2023-08-21T06:02:47;99676.66;;;48.14;10.47
60019;BME280;45870;42.528;26.740;2023-08-21T06:05:13;99682.47;;;49.36;10.85
60019;BME280;45870;42.528;26.740;2023-08-21T06:07:38;99684.50;;;45.94;12.44
60019;BME280;45870;42.528;26.740;2023-08-21T06:10:07;99664.38;;;43.22;14.94
60019;BME280;45870;42.528;26.740;2023-08-21T06:12:33;99678.63;;;45.98;13.60
60019;BME280;45870;42.528;26.740;2023-08-21T06:14:59;99688.94;;;42.50;15.92
60019;BME280;45870;42.528;26.740;2023-08-21T06:17:27;99690.31;;;45.14;13.47
60019;BME280;45870;42.528;26.740;2023-08-21T06:19:53;99610.28;;;44.16;13.94
60019;BME280;45870;42.528;26.740;2023-08-21T06:22:18;99689.94;;;44.51;14.84
60019;BME280;45870;42.528;26.740;2023-08-21T06:24:44;99691.84;;;44.54;14.50
60019;BME280;45870;42.528;26.740;2023-08-21T06:27:10;99660.97;;;44.21;14.74
60019;BME280;45870;42.528;26.740;2023-08-21T06:29:36;99693.47;;;43.52;15.41
60019;BME280;45870;42.528;26.740;2023-08-21T06:32:03;99691.03;;;44.10;16.72
60019;BME280;45870;42.528;26.740;2023-08-21T06:34:29;99698.56;;;42.11;16.57
60019;BME280;45870;42.528;26.740;2023-08-21T06:36:54;99697.19;;;42.73;15.81
60019;BME280;45870;42.528;26.740;2023-08-21T06:39:20;99670.72;;;42.76;16.09
60019;BME280;45870;42.528;26.740;2023-08-21T06:41:46;99690.47;;;44.58;14.88
60019;BME280;45870;42.528;26.740;2023-08-21T06:44:11;99694.97;;;43.44;16.20
60019;BME280;45870;42.528;26.740;2023-08-21T06:46:37;99683.25;;;44.45;15.30
60019;BME280;45870;42.528;26.740;2023-08-21T06:49:03;99698.06;;;43.71;15.75
60019;BME280;45870;42.528;26.740;2023-08-21T06:51:29;99702.59;;;41.49;18.19
60019;BME280;45870;42.528;26.740;2023-08-21T06:53:54;99688.78;;;40.43;18.01
60019;BME280;45870;42.528;26.740;2023-08-21T06:56:20;99695.16;;;40.47;17.65
60019;BME280;45870;42.528;26.740;2023-08-21T06:58:48;99688.63;;;40.11;18.85
60019;BME280;45870;42.528;26.740;2023-08-21T07:01:13;99698.94;;;40.80;17.72
60019;BME280;45870;42.528;26.740;2023-08-21T07:03:39;99691.47;;;40.70;18.10
60019;BME280;45870;42.528;26.740;2023-08-21T07:06:05;99675.81;;;38.79;19.09
60019;BME280;45870;42.528;26.740;2023-08-21T07:08:32;99682.00;;;39.24;20.38
60019;BME280;45870;42.528;26.740;2023-08-21T07:11:02;99676.03;;;39.45;19.63
60019;BME280;45870;42.528;26.740;2023-08-21T07:13:27;99672.66;;;40.79;18.08
60019;BME280;45870;42.528;26.740;2023-08-21T07:15:53;99677.19;;;39.94;18.89
60019;BME280;45870;42.528;26.740;2023-08-21T07:18:20;99661.75;;;39.79;19.10
60019;BME280;45870;42.528;26.740;2023-08-21T07:20:45;99671.69;;;39.64;19.21
60019;BME280;45870;42.528;26.740;2023-08-21T07:23:11;99676.25;;;39.58;19.41
60019;BME280;45870;42.528;26.740;2023-08-21T07:25:37;99682.72;;;40.02;18.79
60019;BME280;45870;42.528;26.740;2023-08-21T07:28:02;99676.06;;;40.51;17.78
60019;BME280;45870;42.528;26.740;2023-08-21T07:30:28;99683.38;;;40.32;17.99
60019;BME280;45870;42.528;26.740;2023-08-21T07:32:54;99677.38;;;41.54;17.97
60019;BME280;45870;42.528;26.740;2023-08-21T07:35:19;99675.19;;;40.54;17.57
60019;BME280;45870;42.528;26.740;2023-08-21T07:37:46;99665.56;;;39.69;17.72
60019;BME280;45870;42.528;26.740;2023-08-21T07:40:12;99662.38;;;40.69;17.34
60019;BME280;45870;42.528;26.740;2023-08-21T07:42:38;99678.94;;;39.65;19.13
60019;BME280;45870;42.528;26.740;2023-08-21T07:45:04;99681.13;;;40.99;17.19
60019;BME280;45870;42.528;26.740;2023-08-21T07:47:30;99682.44;;;40.75;17.56
60019;BME280;45870;42.528;26.740;2023-08-21T07:49:56;99687.69;;;40.76;18.11
60019;BME280;45870;42.528;26.740;2023-08-21T07:52:22;99680.72;;;40.81;18.71
60019;BME280;45870;42.528;26.740;2023-08-21T07:54:53;99682.28;;;41.02;17.30
60019;BME280;45870;42.528;26.740;2023-08-21T07:57:19;99683.38;;;41.56;17.44
60019;BME280;45870;42.528;26.740;2023-08-21T07:59:45;99680.09;;;40.89;17.27
60019;BME280;45870;42.528;26.740;2023-08-21T08:02:11;99624.81;;;40.49;17.78
60019;BME280;45870;42.528;26.740;2023-08-21T08:04:40;99669.06;;;40.59;17.52
60019;BME280;45870;42.528;26.740;2023-08-21T08:07:08;99667.44;;;40.78;17.52
60019;BME280;45870;42.528;26.740;2023-08-21T08:09:34;99646.00;;;41.45;16.46
60019;BME280;45870;42.528;26.740;2023-08-21T08:11:59;99655.91;;;41.69;16.52
60019;BME280;45870;42.528;26.740;2023-08-21T08:14:25;99548.28;;;40.72;16.24
60019;BME280;45870;42.528;26.740;2023-08-21T08:16:51;99659.53;;;41.86;15.39
60019;BME280;45870;42.528;26.740;2023-08-21T08:19:17;99597.25;;;42.11;15.18
60019;BME280;45870;42.528;26.740;2023-08-21T08:21:42;99662.91;;;41.81;17.10
60019;BME280;45870;42.528;26.740;2023-08-21T08:24:08;99658.25;;;42.03;15.68
60019;BME280;45870;42.528;26.740;2023-08-21T08:26:34;99650.38;;;42.65;14.50
60019;BME280;45870;42.528;26.740;2023-08-21T08:29:00;99613.31;;;41.73;15.30
60019;BME280;45870;42.528;26.740;2023-08-21T08:31:26;99649.34;;;41.89;15.07
60019;BME280;45870;42.528;26.740;2023-08-21T08:33:54;99644.44;;;42.59;14.51
60019;BME280;45870;42.528;26.740;2023-08-21T08:36:20;99639.75;;;42.27;13.77
60019;BME280;45870;42.528;26.740;2023-08-21T08:38:46;99638.41;;;41.26;13.50
60019;BME280;45870;42.528;26.740;2023-08-21T08:41:17;99644.41;;;41.60;13.16
60019;BME280;45870;42.528;26.740;2023-08-21T08:43:50;99661.78;;;41.62;12.94
60019;BME280;45870;42.528;26.740;2023-08-21T08:46:18;99643.06;;;41.65;13.43
60019;BME280;45870;42.528;26.740;2023-08-21T08:48:45;99641.78;;;42.27;13.91
60019;BME280;45870;42.528;26.740;2023-08-21T08:51:11;99646.66;;;43.44;13.11
60019;BME280;45870;42.528;26.740;2023-08-21T08:53:38;99632.63;;;42.48;13.34
60019;BME280;45870;42.528;26.740;2023-08-21T08:56:03;99635.94;;;42.47;13.27
60019;BME280;45870;42.528;26.740;2023-08-21T08:58:30;99641.44;;;42.25;13.00
60019;BME280;45870;42.528;26.740;2023-08-21T09:00:56;99634.03;;;42.94;12.96
60019;BME280;45870;42.528;26.740;2023-08-21T09:03:21;99589.53;;;42.12;13.40
60019;BME280;45870;42.528;26.740;2023-08-21T09:05:47;99632.38;;;41.24;13.02
60019;BME280;45870;42.528;26.740;2023-08-21T09:08:14;99607.00;;;41.20;13.03
60019;BME280;45870;42.528;26.740;2023-08-21T09:10:41;99623.72;;;41.31;13.41
60019;BME280;45870;42.528;26.740;2023-08-21T09:13:12;99627.41;;;40.96;13.46
60019;BME280;45870;42.528;26.740;2023-08-21T09:15:41;99623.25;;;42.64;13.26
60019;BME280;45870;42.528;26.740;2023-08-21T09:18:11;99594.31;;;43.07;12.10
60019;BME280;45870;42.528;26.740;2023-08-21T09:20:37;99612.63;;;41.98;13.33
60019;BME280;45870;42.528;26.740;2023-08-21T09:23:03;99594.19;;;43.10;11.70
60019;BME280;45870;42.528;26.740;2023-08-21T09:25:38;99618.03;;;42.88;12.27
60019;BME280;45870;42.528;26.740;2023-08-21T09:28:06;99631.03;;;42.06;12.36
60019;BME280;45870;42.528;26.740;2023-08-21T09:30:48;99626.13;;;42.35;12.73
60019;BME280;45870;42.528;26.740;2023-08-21T09:33:18;99621.72;;;42.05;11.92
60019;BME280;45870;42.528;26.740;2023-08-21T09:35:45;99614.25;;;40.69;12.57
60019;BME280;45870;42.528;26.740;2023-08-21T09:38:11;99626.75;;;41.85;12.60
60019;BME280;45870;42.528;26.740;2023-08-21T09:40:44;99624.47;;;41.80;12.97
60019;BME280;45870;42.528;26.740;2023-08-21T09:43:16;99614.97;;;41.87;13.08
60019;BME280;45870;42.528;26.740;2023-08-21T09:45:46;99623.28;;;41.94;13.45
60019;BME280;45870;42.528;26.740;2023-08-21T09:48:13;99603.97;;;41.89;13.17
60019;BME280;45870;42.528;26.740;2023-08-21T09:50:39;99613.47;;;40.69;13.63
60019;BME280;45870;42.528;26.740;2023-08-21T09:53:09;99616.97;;;41.57;14.56
60019;BME280;45870;42.528;26.740;2023-08-21T09:55:35;99620.34;;;41.04;14.01
60019;BME280;45870;42.528;26.740;2023-08-21T09:58:01;99616.03;;;40.63;13.99
60019;BME280;45870;42.528;26.740;2023-08-21T10:00:30;99595.00;;;40.80;14.92
60019;BME280;45870;42.528;26.740;2023-08-21T10:03:00;99607.53;;;40.99;14.17
60019;BME280;45870;42.528;26.740;2023-08-21T10:05:28;99607.13;;;40.06;15.09
60019;BME280;45870;42.528;26.740;2023-08-21T10:07:55;99592.59;;;40.79;15.70
60019;BME280;45870;42.528;26.740;2023-08-21T10:10:21;99589.66;;;39.71;15.17
60019;BME280;45870;42.528;26.740;2023-08-21T10:12:48;99574.63;;;40.85;14.67
60019;BME280;45870;42.528;26.740;2023-08-21T10:15:14;99592.81;;;40.52;14.89
60019;BME280;45870;42.528;26.740;2023-08-21T10:17:42;99599.06;;;40.79;15.30
60019;BME280;45870;42.528;26.740;2023-08-21T10:20:09;99580.06;;;41.73;15.38
60019;BME280;45870;42.528;26.740;2023-08-21T10:22:45;99605.47;;;41.48;14.98
60019;BME280;45870;42.528;26.740;2023-08-21T10:25:16;99595.50;;;40.39;15.25
60019;BME280;45870;42.528;26.740;2023-08-21T10:27:43;99595.19;;;41.22;15.84
60019;BME280;45870;42.528;26.740;2023-08-21T10:30:14;99549.50;;;41.36;14.36
60019;BME280;45870;42.528;26.740;2023-08-21T10:32:48;99541.81;;;40.20;16.13
60019;BME280;45870;42.528;26.740;2023-08-21T10:35:15;99572.66;;;41.63;15.51
60019;BME280;45870;42.528;26.740;2023-08-21T10:38:13;99579.16;;;41.31;14.99
60019;BME280;45870;42.528;26.740;2023-08-21T10:41:03;99594.81;;;40.87;14.15
60019;BME280;45870;42.528;26.740;2023-08-21T10:43:43;99586.69;;;40.54;14.35
60019;BME280;45870;42.528;26.740;2023-08-21T10:46:10;99544.34;;;41.02;14.30
60019;BME280;45870;42.528;26.740;2023-08-21T10:48:37;99593.88;;;41.43;14.34
60019;BME280;45870;42.528;26.740;2023-08-21T10:51:06;99577.59;;;40.98;14.68
60019;BME280;45870;42.528;26.740;2023-08-21T10:53:33;99555.09;;;40.59;14.53
60019;BME280;45870;42.528;26.740;2023-08-21T10:56:03;99583.53;;;41.04;13.94
60019;BME280;45870;42.528;26.740;2023-08-21T10:58:42;99577.94;;;40.48;14.47
60019;BME280;45870;42.528;26.740;2023-08-21T11:01:08;99580.97;;;40.21;13.78
60019;BME280;45870;42.528;26.740;2023-08-21T11:03:33;99590.22;;;40.02;14.62
60019;BME280;45870;42.528;26.740;2023-08-21T11:06:07;99586.06;;;40.46;15.66
60019;BME280;45870;42.528;26.740;2023-08-21T11:08:34;99585.56;;;41.19;13.85
60019;BME280;45870;42.528;26.740;2023-08-21T11:11:03;99546.47;;;40.46;14.50
60019;BME280;45870;42.528;26.740;2023-08-21T11:13:29;99572.97;;;39.97;13.87
60019;BME280;45870;42.528;26.740;2023-08-21T11:16:03;99389.16;;;39.64;14.37
60019;BME280;45870;42.528;26.740;2023-08-21T11:18:36;99575.31;;;40.57;14.57
60019;BME280;45870;42.528;26.740;2023-08-21T11:21:11;99458.78;;;40.10;14.07
60019;BME280;45870;42.528;26.740;2023-08-21T11:23:39;99572.13;;;40.55;14.02
60019;BME280;45870;42.528;26.740;2023-08-21T11:26:05;99563.78;;;41.00;13.61
60019;BME280;45870;42.528;26.740;2023-08-21T11:28:32;99513.91;;;41.51;13.92
60019;BME280;45870;42.528;26.740;2023-08-21T11:30:58;99518.63;;;40.61;14.69
60019;BME280;45870;42.528;26.740;2023-08-21T11:33:26;99550.47;;;41.74;13.90
60019;BME280;45870;42.528;26.740;2023-08-21T11:35:52;99565.06;;;41.60;14.91
60019;BME280;45870;42.528;26.740;2023-08-21T11:38:24;99561.00;;;41.45;15.37
60019;BME280;45870;42.528;26.740;2023-08-21T11:41:01;99560.66;;;40.78;14.26
60019;BME280;45870;42.528;26.740;2023-08-21T11:43:41;99563.69;;;40.87;14.90
60019;BME280;45870;42.528;26.740;2023-08-21T11:46:09;99555.25;;;41.77;14.68
60019;BME280;45870;42.528;26.740;2023-08-21T11:48:40;99552.22;;;41.56;13.83
60019;BME280;45870;42.528;26.740;2023-08-21T11:51:07;99547.75;;;41.26;14.38
60019;BME280;45870;42.528;26.740;2023-08-21T11:53:36;99550.84;;;41.48;14.67
60019;BME280;45870;42.528;26.740;2023-08-21T11:56:03;99533.53;;;40.29;14.92
60019;BME280;45870;42.528;26.740;2023-08-21T11:58:29;99532.66;;;41.16;14.95
60019;BME280;45870;42.528;26.740;2023-08-21T12:01:03;99549.41;;;41.84;14.46
60019;BME280;45870;42.528;26.740;2023-08-21T12:03:29;99554.28;;;42.25;13.32
60019;BME280;45870;42.528;26.740;2023-08-21T12:05:55;99541.84;;;41.65;13.71
60019;BME280;45870;42.528;26.740;2023-08-21T12:08:25;99539.88;;;41.91;13.68
60019;BME280;45870;42.528;26.740;2023-08-21T12:10:55;99544.00;;;41.45;14.06
60019;BME280;45870;42.528;26.740;2023-08-21T12:13:22;99537.91;;;41.75;13.87
60019;BME280;45870;42.528;26.740;2023-08-21T12:15:48;99540.69;;;43.43;13.26
60019;BME280;45870;42.528;26.740;2023-08-21T12:18:13;99487.22;;;42.69;14.05
60019;BME280;45870;42.528;26.740;2023-08-21T12:20:39;99546.59;;;42.39;14.14
60019;BME280;45870;42.528;26.740;2023-08-21T12:23:05;99543.97;;;42.31;14.63
60019;BME280;45870;42.528;26.740;2023-08-21T12:25:30;99545.13;;;42.72;15.65
60019;BME280;45870;42.528;26.740;2023-08-21T12:27:57;99543.09;;;42.06;14.31
60019;BME280;45870;42.528;26.740;2023-08-21T12:30:23;99551.47;;;41.07;15.74
60019;BME280;45870;42.528;26.740;2023-08-21T12:32:49;99518.41;;;41.77;16.22
60019;BME280;45870;42.528;26.740;2023-08-21T12:35:14;99543.69;;;40.07;16.22
60019;BME280;45870;42.528;26.740;2023-08-21T12:37:40;99557.84;;;41.11;15.86
60019;BME280;45870;42.528;26.740;2023-08-21T12:40:06;99553.28;;;41.17;15.59
60019;BME280;45870;42.528;26.740;2023-08-21T12:42:33;99545.28;;;41.73;15.74
60019;BME280;45870;42.528;26.740;2023-08-21T12:44:59;99544.63;;;41.36;15.68
60019;BME280;45870;42.528;26.740;2023-08-21T12:47:24;99541.03;;;40.87;15.93
60019;BME280;45870;42.528;26.740;2023-08-21T12:49:50;99533.53;;;40.29;16.45
60019;BME280;45870;42.528;26.740;2023-08-21T12:52:15;99548.69;;;40.19;16.83
60019;BME280;45870;42.528;26.740;2023-08-21T12:54:41;99509.69;;;41.27;16.46